createdAt,value
2022-12-09T00:02:20.532Z,41.40
2022-12-09T00:05:50.960Z,42.00
2022-12-09T00:09:18.427Z,40.30
2022-12-09T00:12:45.488Z,37.10
2022-12-09T00:16:17.016Z,35.50
2022-12-09T00:19:45.543Z,34.30
2022-12-09T00:23:12.798Z,34.80
2022-12-09T00:26:39.971Z,33.80
2022-12-09T00:30:11.756Z,34.40
2022-12-09T00:33:39.077Z,39.10
2022-12-09T00:37:06.613Z,38.80
2022-12-09T00:40:33.856Z,38.60
2022-12-09T00:44:01.305Z,38.00
2022-12-09T00:47:29.686Z,38.30
2022-12-09T00:50:57.770Z,41.30
2022-12-09T00:54:28.252Z,40.70
2022-12-09T00:57:55.583Z,40.00
2022-12-09T01:01:28.347Z,36.30
2022-12-09T01:04:58.060Z,34.60
2022-12-09T01:08:25.447Z,32.60
2022-12-09T01:11:52.698Z,33.30
2022-12-09T01:15:19.386Z,34.30
2022-12-09T01:18:47.428Z,32.30
2022-12-09T01:22:14.936Z,32.80
2022-12-09T01:25:45.962Z,33.00
2022-12-09T01:29:13.239Z,32.00
2022-12-09T01:32:41.773Z,31.20
2022-12-09T01:36:11.828Z,33.90
2022-12-09T01:39:38.839Z,35.80
2022-12-09T01:43:13.351Z,32.20
2022-12-09T01:46:41.304Z,33.90
2022-12-09T01:50:11.864Z,33.10
2022-12-09T01:53:43.362Z,31.80
2022-12-09T01:57:12.611Z,31.70
2022-12-09T02:00:39.440Z,34.00
2022-12-09T02:04:06.864Z,35.40
2022-12-09T02:07:35.746Z,37.60
2022-12-09T02:11:24.284Z,35.00
2022-12-09T02:14:59.615Z,33.30
2022-12-09T02:18:31.004Z,32.20
2022-12-09T02:22:01.756Z,32.80
2022-12-09T02:25:38.180Z,32.90
2022-12-09T02:29:47.224Z,35.80
2022-12-09T02:33:27.725Z,35.70
2022-12-09T02:37:04.003Z,35.90
2022-12-09T02:40:35.492Z,33.70
2022-12-09T02:44:08.166Z,38.60
2022-12-09T02:47:38.177Z,37.70
2022-12-09T02:51:09.027Z,33.30
2022-12-09T02:54:39.100Z,38.30
2022-12-09T02:58:07.365Z,39.00
2022-12-09T03:01:43.044Z,37.40
2022-12-09T03:05:22.663Z,37.10
2022-12-09T03:08:58.383Z,35.10
2022-12-09T03:12:32.084Z,36.40
2022-12-09T03:16:10.205Z,33.30
2022-12-09T03:19:42.429Z,34.20
2022-12-09T03:23:11.055Z,35.30
2022-12-09T03:26:41.186Z,33.50
2022-12-09T03:30:12.832Z,36.80
2022-12-09T03:33:42.685Z,36.50
2022-12-09T03:37:12.706Z,42.00
2022-12-09T03:40:40.717Z,41.90
2022-12-09T03:44:14.094Z,38.00
2022-12-09T03:47:41.880Z,36.80
2022-12-09T03:51:13.799Z,39.60
2022-12-09T03:54:45.507Z,39.30
2022-12-09T03:58:16.357Z,38.80
2022-12-09T04:01:45.988Z,39.10
2022-12-09T04:05:14.587Z,37.60
2022-12-09T04:08:41.210Z,37.10
2022-12-09T04:12:08.926Z,35.50
2022-12-09T04:15:36.045Z,35.90
2022-12-09T04:19:02.724Z,32.90
2022-12-09T04:22:30.075Z,34.50
2022-12-09T04:25:56.821Z,32.00
2022-12-09T04:29:23.131Z,35.00
2022-12-09T04:32:54.428Z,36.00
2022-12-09T04:36:23.089Z,36.20
2022-12-09T04:39:50.439Z,35.40
2022-12-09T04:43:17.189Z,33.40
2022-12-09T04:46:44.263Z,34.20
2022-12-09T04:50:13.817Z,34.60
2022-12-09T04:53:42.622Z,34.90
2022-12-09T04:57:12.434Z,33.40
2022-12-09T05:00:40.492Z,32.80
2022-12-09T05:04:07.216Z,31.20
2022-12-09T05:07:34.430Z,33.70
2022-12-09T05:11:01.691Z,34.30
2022-12-09T05:14:28.614Z,33.00
2022-12-09T05:17:55.401Z,32.40
2022-12-09T05:21:23.277Z,30.30
2022-12-09T05:24:50.419Z,29.20
2022-12-09T05:28:17.931Z,28.20
2022-12-09T05:31:44.811Z,29.10
2022-12-09T05:35:12.639Z,29.50
2022-12-09T05:38:39.822Z,29.60
2022-12-09T05:42:07.773Z,30.10
2022-12-09T05:45:35.708Z,28.40
2022-12-09T05:49:03.904Z,26.80
2022-12-09T05:52:33.471Z,26.00
2022-12-09T05:56:02.379Z,28.90
2022-12-09T05:59:30.009Z,29.60
2022-12-09T06:02:57.752Z,29.80
2022-12-09T06:06:28.422Z,31.20
2022-12-09T06:09:56.466Z,33.10
2022-12-09T06:13:24.626Z,31.10
2022-12-09T06:16:51.844Z,31.20
2022-12-09T06:20:19.563Z,29.20
2022-12-09T06:23:46.943Z,27.40
2022-12-09T06:27:17.807Z,26.20
2022-12-09T06:30:49.039Z,25.00
2022-12-09T06:34:16.450Z,24.70
2022-12-09T06:37:43.546Z,22.90
2022-12-09T06:41:12.377Z,22.30
2022-12-09T06:44:40.414Z,21.40
2022-12-09T06:48:09.219Z,21.40
2022-12-09T06:51:36.974Z,21.20
2022-12-09T06:55:05.853Z,22.60
2022-12-09T06:58:33.875Z,22.30
2022-12-09T07:02:00.800Z,22.90
2022-12-09T07:05:29.033Z,25.90
2022-12-09T07:08:59.272Z,40.80
2022-12-09T07:12:26.638Z,24.50
2022-12-09T07:15:55.350Z,25.10
2022-12-09T07:19:25.497Z,29.10
2022-12-09T07:22:52.672Z,26.70
2022-12-09T07:26:20.647Z,26.80
2022-12-09T07:29:47.543Z,26.10
2022-12-09T07:33:15.387Z,24.90
2022-12-09T07:36:42.579Z,25.10
2022-12-09T07:40:11.783Z,24.20
2022-12-09T07:43:40.465Z,25.90
2022-12-09T07:47:07.738Z,26.20
2022-12-09T07:50:34.512Z,27.10
2022-12-09T07:54:01.978Z,22.70
2022-12-09T07:57:29.106Z,19.40
2022-12-09T08:00:59.737Z,20.90
2022-12-09T08:04:33.645Z,24.50
2022-12-09T08:08:01.409Z,25.50
2022-12-09T08:11:32.262Z,28.40
2022-12-09T08:14:59.649Z,28.00
2022-12-09T08:18:26.727Z,29.30
2022-12-09T08:21:54.918Z,25.50
2022-12-09T08:25:22.380Z,23.50
2022-12-09T08:28:49.557Z,23.70
2022-12-09T08:32:18.788Z,23.40
2022-12-09T08:35:46.988Z,25.50
2022-12-09T08:39:15.676Z,24.00
2022-12-09T08:42:43.271Z,22.90
2022-12-09T08:46:11.211Z,23.90
2022-12-09T08:49:38.590Z,22.20
2022-12-09T08:53:05.478Z,22.50
2022-12-09T08:56:34.250Z,24.40
2022-12-09T09:00:01.269Z,24.30
2022-12-09T09:03:30.621Z,23.60
2022-12-09T09:06:57.088Z,24.00
2022-12-09T09:10:24.074Z,24.30
2022-12-09T09:13:52.565Z,25.10
2022-12-09T09:17:19.612Z,26.40
2022-12-09T09:20:49.085Z,33.10
2022-12-09T09:24:19.005Z,28.00
2022-12-09T09:27:45.885Z,29.90
2022-12-09T09:31:22.167Z,30.90
2022-12-09T09:34:50.863Z,32.40
2022-12-09T09:38:18.221Z,39.80
2022-12-09T09:41:54.531Z,39.40
2022-12-09T09:45:25.019Z,42.30
2022-12-09T09:48:53.756Z,34.10
2022-12-09T09:52:24.703Z,26.30
2022-12-09T09:55:58.277Z,25.40
2022-12-09T09:59:36.511Z,23.40
2022-12-09T10:03:12.401Z,22.80
2022-12-09T10:06:51.979Z,21.50
2022-12-09T10:10:32.490Z,20.40
2022-12-09T10:14:12.049Z,18.40
2022-12-09T10:17:47.871Z,19.00
2022-12-09T10:21:30.081Z,18.60
2022-12-09T10:24:59.839Z,20.50
2022-12-09T10:28:29.178Z,19.90
2022-12-09T10:31:56.137Z,20.00
2022-12-09T10:35:25.607Z,22.40
2022-12-09T10:38:52.524Z,23.50
2022-12-09T10:42:37.368Z,21.10
2022-12-09T10:46:17.721Z,22.90
2022-12-09T10:49:49.484Z,23.30
2022-12-09T10:53:18.695Z,23.40
2022-12-09T10:57:04.392Z,22.80
2022-12-09T11:00:35.078Z,22.50
2022-12-09T11:04:13.574Z,21.80
2022-12-09T11:11:21.693Z,21.90
2022-12-09T11:14:55.639Z,22.20
2022-12-09T11:18:25.658Z,23.70
2022-12-09T11:21:52.419Z,25.80
2022-12-09T11:25:25.117Z,23.30
2022-12-09T11:29:04.594Z,20.40
2022-12-09T11:32:31.615Z,20.30
2022-12-09T11:36:03.691Z,20.20
2022-12-09T11:39:32.490Z,19.20
2022-12-09T11:42:59.916Z,22.20
2022-12-09T11:46:29.254Z,22.60
2022-12-09T11:50:05.448Z,22.50
2022-12-09T11:53:34.813Z,23.70
2022-12-09T11:57:06.904Z,24.10
2022-12-09T12:00:47.982Z,27.10
2022-12-09T12:07:48.062Z,22.70
2022-12-09T12:11:18.948Z,21.80
2022-12-09T12:14:47.543Z,21.60
2022-12-09T12:18:19.846Z,22.20
2022-12-09T12:21:57.530Z,22.90
2022-12-09T12:25:46.592Z,23.80
2022-12-09T12:29:28.914Z,22.30
2022-12-09T12:33:59.751Z,24.20
2022-12-09T12:37:17.357Z,26.30
2022-12-09T12:40:56.422Z,28.20
2022-12-09T12:44:54.657Z,29.30
2022-12-09T12:48:31.732Z,29.20
2022-12-09T12:52:54.768Z,30.60
2022-12-09T12:56:08.758Z,30.80
2022-12-09T12:59:42.933Z,33.30
2022-12-09T13:03:21.162Z,35.90
2022-12-09T13:06:52.746Z,35.20
2022-12-09T13:10:27.898Z,33.30
2022-12-09T13:13:57.364Z,30.50
2022-12-09T13:17:28.461Z,33.30
2022-12-09T13:21:00.012Z,29.60
2022-12-09T13:24:42.437Z,31.10
2022-12-09T13:28:15.709Z,30.00
2022-12-09T13:31:51.251Z,30.50
2022-12-09T13:35:25.904Z,30.90
2022-12-09T13:38:56.559Z,31.40
2022-12-09T13:42:56.670Z,35.10
2022-12-09T13:46:27.296Z,34.20
2022-12-09T13:49:59.953Z,37.30
2022-12-09T13:53:32.766Z,38.00
2022-12-09T13:57:17.863Z,37.20
2022-12-09T14:01:04.315Z,38.00
2022-12-09T14:04:38.287Z,39.70
2022-12-09T14:08:17.230Z,46.30
2022-12-09T14:11:48.554Z,41.50
2022-12-09T14:15:44.545Z,42.20
2022-12-09T14:19:47.878Z,44.10
2022-12-09T14:23:23.886Z,40.40
2022-12-09T14:27:12.680Z,40.30
2022-12-09T14:31:11.040Z,39.20
2022-12-09T14:34:45.114Z,40.50
2022-12-09T14:38:24.143Z,44.30
2022-12-09T14:41:56.914Z,47.40
2022-12-09T14:45:32.493Z,44.40
2022-12-09T14:49:02.825Z,49.30
2022-12-09T14:52:34.422Z,46.90
2022-12-09T14:56:01.745Z,44.10
2022-12-09T14:59:34.046Z,42.40
2022-12-09T15:06:50.491Z,43.60
2022-12-09T15:10:25.393Z,41.90
2022-12-09T15:14:17.513Z,42.40
2022-12-09T15:17:47.710Z,43.30
2022-12-09T15:21:27.916Z,41.50
2022-12-09T15:24:56.103Z,41.10
2022-12-09T15:28:26.606Z,45.20
2022-12-09T15:31:53.861Z,44.20
2022-12-09T15:35:23.823Z,44.30
2022-12-09T15:38:56.314Z,42.50
2022-12-09T15:42:28.178Z,41.40
2022-12-09T15:45:57.809Z,40.60
2022-12-09T15:49:28.167Z,40.60
2022-12-09T15:52:57.501Z,43.60
2022-12-09T15:56:30.628Z,41.80
2022-12-09T16:00:00.330Z,40.70
2022-12-09T16:03:30.436Z,44.50
2022-12-09T16:06:57.237Z,46.90
2022-12-09T16:10:27.211Z,43.20
2022-12-09T16:14:10.488Z,40.40
2022-12-09T16:17:52.668Z,39.00
2022-12-09T16:21:30.454Z,41.20
2022-12-09T16:25:17.380Z,39.80
2022-12-09T16:28:46.530Z,43.20
2022-12-09T16:32:30.722Z,42.10
2022-12-09T16:36:10.435Z,45.70
2022-12-09T16:39:38.320Z,45.70
2022-12-09T16:43:22.304Z,45.40
2022-12-09T16:46:48.651Z,44.20
2022-12-09T16:50:16.264Z,43.90
2022-12-09T16:53:47.318Z,48.10
2022-12-09T16:57:17.779Z,44.40
2022-12-09T17:00:44.309Z,42.80
2022-12-09T17:04:16.384Z,41.90
2022-12-09T17:07:43.208Z,44.20
2022-12-09T17:11:10.269Z,47.50
2022-12-09T17:14:36.899Z,45.70
2022-12-09T17:18:05.185Z,42.40
2022-12-09T17:21:32.238Z,42.70
2022-12-09T17:25:01.806Z,41.90
2022-12-09T17:28:33.273Z,41.40
2022-12-09T17:32:00.260Z,47.80
2022-12-09T17:35:27.382Z,55.20
2022-12-09T17:38:55.522Z,58.70
2022-12-09T17:42:22.326Z,58.40
2022-12-09T17:45:48.881Z,53.00
2022-12-09T17:49:15.790Z,46.10
2022-12-09T17:52:43.271Z,44.00
2022-12-09T17:56:14.340Z,43.10
2022-12-09T17:59:42.529Z,41.30
2022-12-09T18:03:17.905Z,45.60
2022-12-09T18:06:49.425Z,50.20
2022-12-09T18:10:17.007Z,59.10
2022-12-09T18:13:48.126Z,62.80
2022-12-09T18:17:17.678Z,70.50
2022-12-09T18:20:51.577Z,63.50
2022-12-09T18:24:36.762Z,49.20
2022-12-09T18:28:33.220Z,46.10
2022-12-09T18:32:03.392Z,44.50
2022-12-09T18:35:35.833Z,42.00
2022-12-09T18:39:03.519Z,45.00
2022-12-09T18:42:37.385Z,46.40
2022-12-09T18:46:19.283Z,47.00
2022-12-09T18:49:52.893Z,51.70
2022-12-09T18:53:20.311Z,51.90
2022-12-09T18:56:48.531Z,52.20
2022-12-09T19:00:22.259Z,45.20
2022-12-09T19:03:52.461Z,47.00
2022-12-09T19:07:31.972Z,47.30
2022-12-09T19:11:06.743Z,47.80
2022-12-09T19:14:40.302Z,47.10
2022-12-09T19:18:08.225Z,49.10
2022-12-09T19:21:35.622Z,49.30
2022-12-09T19:25:04.558Z,49.00
2022-12-09T19:28:32.795Z,51.10
2022-12-09T19:32:01.241Z,51.40
2022-12-09T19:35:30.950Z,56.60
2022-12-09T19:39:00.767Z,58.10
2022-12-09T19:42:30.668Z,57.00
2022-12-09T19:46:12.219Z,53.10
2022-12-09T19:49:47.690Z,54.50
2022-12-09T19:53:15.231Z,54.10
2022-12-09T19:56:54.944Z,54.60
2022-12-09T20:00:50.531Z,55.70
2022-12-09T20:04:47.561Z,55.20
2022-12-09T20:08:10.436Z,56.20
2022-12-09T20:11:40.744Z,51.40
2022-12-09T20:15:09.288Z,49.90
2022-12-09T20:18:36.468Z,48.60
2022-12-09T20:22:03.212Z,53.30
2022-12-09T20:25:36.657Z,51.70
2022-12-09T20:29:06.490Z,50.10
2022-12-09T20:32:33.864Z,49.30
2022-12-09T20:36:08.339Z,47.50
2022-12-09T20:39:35.527Z,47.20
2022-12-09T20:43:02.229Z,46.60
2022-12-09T20:46:32.675Z,49.90
2022-12-09T20:49:59.207Z,48.90
2022-12-09T20:53:25.789Z,48.40
2022-12-09T20:56:54.931Z,50.10
2022-12-09T21:00:22.417Z,48.30
2022-12-09T21:03:49.798Z,48.70
2022-12-09T21:07:17.041Z,51.50
2022-12-09T21:10:46.532Z,51.40
2022-12-09T21:14:18.339Z,52.30
2022-12-09T21:17:46.902Z,54.40
2022-12-09T21:21:14.384Z,54.60
2022-12-09T21:24:41.220Z,54.90
2022-12-09T21:28:11.524Z,53.80
2022-12-09T21:31:41.055Z,53.60
2022-12-09T21:35:09.269Z,50.60
2022-12-09T21:38:36.481Z,46.40
2022-12-09T21:42:03.462Z,47.00
2022-12-09T21:45:30.645Z,46.60
2022-12-09T21:49:03.249Z,47.30
2022-12-09T21:52:30.988Z,48.50
2022-12-09T21:56:02.032Z,47.50
2022-12-09T21:59:29.292Z,47.80
2022-12-09T22:02:56.447Z,48.70
2022-12-09T22:06:24.393Z,47.70
2022-12-09T22:09:51.896Z,48.40
2022-12-09T22:13:18.881Z,51.80
2022-12-09T22:16:47.552Z,50.60
2022-12-09T22:20:54.019Z,49.10
2022-12-09T22:24:05.695Z,50.70
2022-12-09T22:27:35.872Z,50.40
2022-12-09T22:31:03.437Z,52.00
2022-12-09T22:34:30.147Z,54.50
2022-12-09T22:37:59.215Z,50.70
2022-12-09T22:41:30.040Z,48.00
2022-12-09T22:44:56.668Z,55.00
2022-12-09T22:48:23.087Z,54.90
2022-12-09T22:51:50.107Z,53.70
2022-12-09T22:55:16.951Z,52.20
2022-12-09T22:58:45.604Z,52.50
2022-12-09T23:02:18.788Z,51.10
2022-12-09T23:09:14.903Z,55.00
2022-12-09T23:12:44.588Z,55.10
2022-12-09T23:16:16.191Z,52.40
2022-12-09T23:19:42.989Z,52.70
2022-12-09T23:23:09.932Z,53.50
2022-12-09T23:26:45.137Z,53.50
2022-12-09T23:30:14.292Z,53.20
2022-12-09T23:33:42.877Z,53.90
2022-12-09T23:37:09.863Z,52.50
2022-12-09T23:40:36.803Z,51.20
2022-12-09T23:44:03.529Z,53.80
2022-12-09T23:47:30.794Z,51.80
2022-12-09T23:50:57.430Z,50.50
2022-12-09T23:54:30.523Z,53.60
2022-12-09T23:57:57.778Z,52.40
